createdAt,value
2018-07-17T00:01:35.137Z,94211.88
2018-07-17T00:04:03.889Z,94206.50
2018-07-17T00:06:32.605Z,94206.72
2018-07-17T00:09:01.288Z,94210.11
2018-07-17T00:11:30.551Z,94211.40
2018-07-17T00:13:59.258Z,94211.15
2018-07-17T00:16:27.963Z,94211.68
2018-07-17T00:18:56.656Z,94218.00
2018-07-17T00:21:25.344Z,94220.03
2018-07-17T00:23:54.054Z,94221.23
2018-07-17T00:26:22.754Z,94214.32
2018-07-17T00:28:51.460Z,94213.50
2018-07-17T00:31:20.255Z,94204.69
2018-07-17T00:33:49.034Z,94202.91
2018-07-17T00:36:17.711Z,94191.00
2018-07-17T00:38:46.444Z,94192.82
2018-07-17T00:41:15.098Z,94193.32
2018-07-17T00:43:43.905Z,94198.31
2018-07-17T00:46:12.581Z,94207.10
2018-07-17T00:48:41.277Z,94210.03
2018-07-17T00:51:10.020Z,94201.13
2018-07-17T00:53:38.736Z,94209.61
2018-07-17T00:56:07.544Z,94203.91
2018-07-17T00:58:36.330Z,94200.84
2018-07-17T01:01:04.088Z,94193.36
2018-07-17T01:03:38.049Z,94205.59
2018-07-17T01:06:12.005Z,94205.48
2018-07-17T01:08:45.900Z,94204.73
2018-07-17T01:11:19.878Z,94203.45
2018-07-17T01:13:52.458Z,94205.33
2018-07-17T01:16:21.144Z,94202.27
2018-07-17T01:18:49.828Z,94202.27
2018-07-17T01:21:18.489Z,94200.75
2018-07-17T01:23:47.168Z,94195.59
2018-07-17T01:26:15.854Z,94195.88
2018-07-17T01:28:44.568Z,94192.89
2018-07-17T01:31:13.513Z,94185.30
2018-07-17T01:33:42.203Z,94187.51
2018-07-17T01:36:10.932Z,94180.95
2018-07-17T01:38:39.680Z,94180.48
2018-07-17T01:41:08.386Z,94194.85
2018-07-17T01:43:37.116Z,94185.66
2018-07-17T01:46:05.903Z,94178.27
2018-07-17T01:48:34.831Z,94173.95
2018-07-17T01:51:03.547Z,94162.95
2018-07-17T01:53:32.290Z,94166.69
2018-07-17T01:56:01.022Z,94159.11
2018-07-17T01:58:29.792Z,94158.05
2018-07-17T02:00:58.542Z,94157.48
2018-07-17T02:03:27.289Z,94149.75
2018-07-17T02:05:55.976Z,94159.36
2018-07-17T02:08:24.627Z,94162.00
2018-07-17T02:10:53.386Z,94157.47
2018-07-17T02:13:22.064Z,94146.57
2018-07-17T02:15:50.779Z,94143.46
2018-07-17T02:18:19.455Z,94147.50
2018-07-17T02:20:48.124Z,94150.75
2018-07-17T02:23:16.918Z,94150.36
2018-07-17T02:25:45.620Z,94152.67
2018-07-17T02:28:14.294Z,94150.33
2018-07-17T02:30:43.062Z,94152.67
2018-07-17T02:33:11.756Z,94153.31
2018-07-17T02:35:40.445Z,94148.97
2018-07-17T02:38:09.150Z,94150.61
2018-07-17T02:40:37.832Z,94152.89
2018-07-17T02:43:06.551Z,94146.86
2018-07-17T02:45:35.222Z,94145.55
2018-07-17T02:48:03.957Z,94141.84
2018-07-17T02:50:32.625Z,94139.42
2018-07-17T02:53:01.344Z,94133.79
2018-07-17T02:55:30.043Z,94131.86
2018-07-17T02:57:58.710Z,94137.95
2018-07-17T03:00:27.425Z,94134.21
2018-07-17T03:02:56.112Z,94134.78
2018-07-17T03:05:24.923Z,94141.80
2018-07-17T03:07:53.623Z,94143.74
2018-07-17T03:10:22.380Z,94147.49
2018-07-17T03:12:51.094Z,94147.13
2018-07-17T03:15:19.799Z,94143.88
2018-07-17T03:17:48.516Z,94131.52
2018-07-17T03:20:17.261Z,94130.69
2018-07-17T03:22:45.920Z,94119.25
2018-07-17T03:25:14.607Z,94138.66
2018-07-17T03:27:43.300Z,94128.34
2018-07-17T03:30:12.040Z,94134.09
2018-07-17T03:32:40.860Z,94142.48
2018-07-17T03:35:09.581Z,94135.19
2018-07-17T03:37:38.284Z,94141.53
2018-07-17T03:40:07.190Z,94139.93
2018-07-17T03:42:35.932Z,94131.79
2018-07-17T03:45:04.749Z,94130.95
2018-07-17T03:47:33.552Z,94135.64
2018-07-17T03:50:02.301Z,94130.28
2018-07-17T03:52:31.024Z,94122.72
2018-07-17T03:54:59.725Z,94127.16
2018-07-17T03:57:28.464Z,94134.28
2018-07-17T03:59:57.184Z,94130.38
2018-07-17T04:02:26.701Z,94130.17
2018-07-17T04:04:55.481Z,94135.53
2018-07-17T04:07:24.201Z,94129.06
2018-07-17T04:09:52.903Z,94133.89
2018-07-17T04:12:21.615Z,94135.78
2018-07-17T04:14:50.396Z,94151.14
2018-07-17T04:17:20.177Z,94141.38
2018-07-17T04:19:49.003Z,94142.02
2018-07-17T04:22:17.772Z,94140.36
2018-07-17T04:24:46.817Z,94153.13
2018-07-17T04:27:17.585Z,94155.64
2018-07-17T04:29:46.503Z,94156.34
2018-07-17T04:32:15.317Z,94147.45
2018-07-17T04:34:44.015Z,94150.38
2018-07-17T04:37:12.751Z,94139.09
2018-07-17T04:39:41.473Z,94137.61
2018-07-17T04:42:10.255Z,94135.62
2018-07-17T04:44:38.955Z,94131.33
2018-07-17T04:47:07.665Z,94130.16
2018-07-17T04:49:36.431Z,94137.28
2018-07-17T04:52:05.149Z,94134.36
2018-07-17T04:54:34.256Z,94141.55
2018-07-17T04:57:03.030Z,94150.25
2018-07-17T04:59:31.716Z,94148.37
2018-07-17T05:02:00.457Z,94149.29
2018-07-17T05:04:29.193Z,94150.36
2018-07-17T05:06:58.031Z,94152.71
2018-07-17T05:09:26.754Z,94145.94
2018-07-17T05:11:55.473Z,94146.08
2018-07-17T05:14:24.156Z,94145.61
2018-07-17T05:16:52.811Z,94150.71
2018-07-17T05:19:21.484Z,94142.58
2018-07-17T05:21:50.464Z,94138.56
2018-07-17T05:24:19.239Z,94135.27
2018-07-17T05:26:47.987Z,94140.35
2018-07-17T05:29:16.775Z,94137.48
2018-07-17T05:31:45.525Z,94140.84
2018-07-17T05:34:14.331Z,94139.91
2018-07-17T05:36:43.033Z,94139.66
2018-07-17T05:39:11.766Z,94128.36
2018-07-17T05:41:40.487Z,94123.92
2018-07-17T05:44:09.275Z,94121.66
2018-07-17T05:46:38.015Z,94123.25
2018-07-17T05:49:06.796Z,94128.84
2018-07-17T05:51:35.516Z,94122.56
2018-07-17T05:54:04.347Z,94122.91
2018-07-17T05:56:33.076Z,94114.32
2018-07-17T05:59:01.807Z,94117.97
2018-07-17T06:01:30.606Z,94110.88
2018-07-17T06:03:59.398Z,94103.60
2018-07-17T06:06:28.225Z,94105.30
2018-07-17T06:08:56.980Z,94102.20
2018-07-17T06:11:25.750Z,94098.03
2018-07-17T06:13:54.558Z,94100.48
2018-07-17T06:16:23.291Z,94097.17
2018-07-17T06:18:52.068Z,94094.11
2018-07-17T06:21:20.764Z,94100.23
2018-07-17T06:23:49.469Z,94096.31
2018-07-17T06:26:18.176Z,94100.23
2018-07-17T06:28:46.901Z,94100.53
2018-07-17T06:31:15.645Z,94104.72
2018-07-17T06:33:44.428Z,94098.93
2018-07-17T06:36:13.156Z,94104.23
2018-07-17T06:38:41.860Z,94109.03
2018-07-17T06:41:10.639Z,94112.22
2018-07-17T06:43:39.403Z,94117.23
2018-07-17T06:46:08.145Z,94117.53
2018-07-17T06:48:36.854Z,94113.86
2018-07-17T06:51:05.573Z,94112.82
2018-07-17T06:53:34.344Z,94119.44
2018-07-17T06:56:03.142Z,94125.56
2018-07-17T06:58:31.900Z,94131.65
2018-07-17T07:01:00.653Z,94126.89
2018-07-17T07:03:29.347Z,94133.83
2018-07-17T07:05:58.122Z,94131.18
2018-07-17T07:08:26.826Z,94124.02
2018-07-17T07:10:55.619Z,94127.21
2018-07-17T07:13:24.301Z,94130.66
2018-07-17T07:15:53.045Z,94134.63
2018-07-17T07:18:21.762Z,94126.93
2018-07-17T07:20:50.467Z,94130.88
2018-07-17T07:23:19.213Z,94134.82
2018-07-17T07:25:47.974Z,94137.48
2018-07-17T07:28:16.825Z,94134.27
2018-07-17T07:30:45.646Z,94131.10
2018-07-17T07:33:14.355Z,94134.03
2018-07-17T07:35:43.263Z,94133.22
2018-07-17T07:38:12.042Z,94128.11
2018-07-17T07:40:40.886Z,94125.73
2018-07-17T07:43:14.204Z,94134.48
2018-07-17T07:45:42.958Z,94139.13
2018-07-17T07:48:14.945Z,94159.95
2018-07-17T07:50:43.681Z,94177.54
2018-07-17T07:53:12.427Z,94199.35
2018-07-17T07:55:44.280Z,94215.72
2018-07-17T07:58:18.484Z,94222.03
2018-07-17T08:00:47.258Z,94241.33
2018-07-17T08:03:19.886Z,94258.35
2018-07-17T08:05:48.617Z,94247.91
2018-07-17T08:08:17.299Z,94232.81
2018-07-17T08:10:45.990Z,94193.91
2018-07-17T08:13:16.550Z,94175.81
2018-07-17T08:15:45.254Z,94180.99
2018-07-17T08:18:15.960Z,94160.70
2018-07-17T08:20:44.760Z,94161.16
2018-07-17T08:23:13.539Z,94181.53
2018-07-17T08:25:42.274Z,94185.95
2018-07-17T08:28:11.031Z,94202.92
2018-07-17T08:30:39.761Z,94211.31
2018-07-17T08:33:11.930Z,94199.13
2018-07-17T08:35:41.646Z,94200.05
2018-07-17T08:38:10.281Z,94192.91
2018-07-17T08:40:39.044Z,94191.56
2018-07-17T08:43:11.182Z,94188.30
2018-07-17T08:45:41.986Z,94186.28
2018-07-17T08:48:17.333Z,94181.06
2018-07-17T08:50:47.347Z,94176.81
2018-07-17T08:53:16.026Z,94168.14
2018-07-17T08:55:51.066Z,94147.86
2018-07-17T08:58:19.887Z,94138.63
2018-07-17T09:00:52.374Z,94137.25
2018-07-17T09:03:25.155Z,94136.67
2018-07-17T09:05:53.972Z,94150.23
2018-07-17T09:08:29.774Z,94149.57
2018-07-17T09:10:58.524Z,94135.31
2018-07-17T09:13:31.409Z,94130.16
2018-07-17T09:16:00.122Z,94131.46
2018-07-17T09:18:28.868Z,94136.63
2018-07-17T09:20:57.609Z,94130.39
2018-07-17T09:23:26.369Z,94123.03
2018-07-17T09:25:55.232Z,94119.33
2018-07-17T09:28:30.469Z,94120.83
2018-07-17T09:31:01.043Z,94128.78
2018-07-17T09:33:30.878Z,94138.06
2018-07-17T09:36:00.920Z,94131.50
2018-07-17T09:38:29.949Z,94130.16
2018-07-17T09:40:58.664Z,94133.64
2018-07-17T09:43:27.411Z,94121.23
2018-07-17T09:45:56.107Z,94112.03
2018-07-17T09:48:24.796Z,94109.87
2018-07-17T09:50:53.602Z,94113.15
2018-07-17T09:53:23.301Z,94110.68
2018-07-17T09:55:52.034Z,94113.47
2018-07-17T09:58:20.796Z,94112.41
2018-07-17T10:00:54.710Z,94111.64
2018-07-17T10:03:23.545Z,94110.58
2018-07-17T10:05:52.306Z,94110.31
2018-07-17T10:08:21.041Z,94112.47
2018-07-17T10:10:49.705Z,94114.36
2018-07-17T10:13:18.444Z,94117.03
2018-07-17T10:15:47.155Z,94114.19
2018-07-17T10:18:15.925Z,94109.71
2018-07-17T10:20:44.633Z,94106.79
2018-07-17T10:23:13.460Z,94098.81
2018-07-17T10:25:42.236Z,94097.73
2018-07-17T10:28:10.973Z,94097.70
2018-07-17T10:30:40.733Z,94088.62
2018-07-17T10:33:09.548Z,94086.18
2018-07-17T10:35:38.230Z,94081.17
2018-07-17T10:38:06.951Z,94078.98
2018-07-17T10:40:35.635Z,94074.86
2018-07-17T10:43:04.363Z,94080.04
2018-07-17T10:45:33.446Z,94074.00
2018-07-17T10:48:02.184Z,94075.06
2018-07-17T10:50:30.970Z,94070.79
2018-07-17T10:52:59.714Z,94070.68
2018-07-17T10:55:33.143Z,94069.55
2018-07-17T10:58:03.026Z,94068.95
2018-07-17T11:00:34.366Z,94067.92
2018-07-17T11:03:04.711Z,94066.13
2018-07-17T11:05:37.057Z,94069.51
2018-07-17T11:08:08.188Z,94060.70
2018-07-17T11:10:39.215Z,94062.59
2018-07-17T11:13:10.412Z,94054.73
2018-07-17T11:15:45.017Z,94050.67
2018-07-17T11:18:20.675Z,94044.38
2018-07-17T11:20:54.641Z,94037.58
2018-07-17T11:23:27.421Z,94035.30
2018-07-17T11:25:59.334Z,94032.66
2018-07-17T11:28:28.058Z,94029.38
2018-07-17T11:30:56.746Z,94021.69
2018-07-17T11:33:25.559Z,94027.18
2018-07-17T11:35:54.230Z,94017.48
2018-07-17T11:38:23.027Z,94012.66
2018-07-17T11:40:51.711Z,94001.89
2018-07-17T11:43:20.472Z,94001.59
2018-07-17T11:45:49.169Z,94003.30
2018-07-17T11:48:17.845Z,93997.56
2018-07-17T11:50:46.620Z,93989.00
2018-07-17T11:53:15.360Z,93981.16
2018-07-17T11:55:44.741Z,93995.59
2018-07-17T11:58:13.506Z,94006.73
2018-07-17T12:00:42.230Z,94006.90
2018-07-17T12:03:10.982Z,94005.50
2018-07-17T12:05:39.803Z,94002.10
2018-07-17T12:08:08.546Z,93997.09
2018-07-17T12:10:37.322Z,94001.25
2018-07-17T12:13:06.249Z,94008.95
2018-07-17T12:15:34.967Z,94001.08
2018-07-17T12:18:03.645Z,94007.88
2018-07-17T12:20:32.691Z,94020.49
2018-07-17T12:23:01.251Z,94016.78
2018-07-17T12:25:29.982Z,94014.25
2018-07-17T12:27:59.682Z,94017.57
2018-07-17T12:30:28.455Z,94023.88
2018-07-17T12:32:57.251Z,94017.63
2018-07-17T12:35:26.007Z,94006.58
2018-07-17T12:37:55.151Z,93998.52
2018-07-17T12:40:23.910Z,93994.66
2018-07-17T12:42:52.882Z,93991.97
2018-07-17T12:45:21.575Z,93987.60
2018-07-17T12:47:50.280Z,93983.45
2018-07-17T12:50:19.048Z,93991.97
2018-07-17T12:52:47.927Z,93989.36
2018-07-17T12:55:16.683Z,93987.91
2018-07-17T12:57:45.421Z,93986.05
2018-07-17T13:00:14.262Z,93987.13
2018-07-17T13:02:43.074Z,93988.69
2018-07-17T13:05:11.804Z,93991.83
2018-07-17T13:07:40.811Z,93987.95
2018-07-17T13:10:09.530Z,93983.17
2018-07-17T13:12:38.359Z,93985.59
2018-07-17T13:15:07.161Z,93984.98
2018-07-17T13:17:35.846Z,93978.03
2018-07-17T13:20:05.267Z,93973.22
2018-07-17T13:22:33.919Z,93970.16
2018-07-17T13:25:02.729Z,93974.45
2018-07-17T13:27:31.387Z,93968.68
2018-07-17T13:30:00.088Z,93966.15
2018-07-17T13:32:28.842Z,93956.45
2018-07-17T13:34:57.560Z,93950.82
2018-07-17T13:37:26.249Z,93960.85
2018-07-17T13:39:54.952Z,93947.46
2018-07-17T13:42:23.702Z,93947.61
2018-07-17T13:44:52.507Z,93947.58
2018-07-17T13:47:21.247Z,93943.44
2018-07-17T13:49:49.968Z,93952.25
2018-07-17T13:52:18.794Z,93947.30
2018-07-17T13:54:47.647Z,93949.78
2018-07-17T13:57:16.585Z,93948.55
2018-07-17T13:59:45.258Z,93945.05
2018-07-17T14:02:13.927Z,93936.39
2018-07-17T14:04:42.751Z,93936.77
2018-07-17T14:07:11.452Z,93942.58
2018-07-17T14:09:40.110Z,93938.78
2018-07-17T14:12:09.450Z,93936.81
2018-07-17T14:14:38.112Z,93932.98
2018-07-17T14:17:06.866Z,93929.33
2018-07-17T14:19:35.548Z,93925.20
2018-07-17T14:22:04.318Z,93930.15
2018-07-17T14:24:33.099Z,93934.48
2018-07-17T14:27:05.763Z,93933.00
2018-07-17T14:29:34.480Z,93936.73
2018-07-17T14:32:03.187Z,93940.14
2018-07-17T14:34:31.940Z,93942.65
2018-07-17T14:37:00.688Z,93939.87
2018-07-17T14:39:29.441Z,93933.41
2018-07-17T14:41:59.387Z,93929.69
2018-07-17T14:44:28.086Z,93937.34
2018-07-17T14:46:56.944Z,93932.08
2018-07-17T14:49:25.754Z,93936.30
2018-07-17T14:51:54.510Z,93944.47
2018-07-17T14:54:23.308Z,93935.48
2018-07-17T14:56:52.034Z,93935.70
2018-07-17T14:59:21.022Z,93938.97
2018-07-17T15:01:50.643Z,93931.82
2018-07-17T15:04:19.951Z,93925.96
2018-07-17T15:06:48.686Z,93929.51
2018-07-17T15:09:17.378Z,93918.48
2018-07-17T15:11:46.060Z,93922.27
2018-07-17T15:14:14.792Z,93929.73
2018-07-17T15:16:43.455Z,93924.22
2018-07-17T15:19:12.159Z,93924.22
2018-07-17T15:21:40.863Z,93908.08
2018-07-17T15:24:09.693Z,93924.58
2018-07-17T15:26:38.427Z,93919.48
2018-07-17T15:29:07.180Z,93914.95
2018-07-17T15:31:35.970Z,93923.38
2018-07-17T15:34:04.711Z,93927.06
2018-07-17T15:36:33.709Z,93914.62
2018-07-17T15:39:02.443Z,93911.97
2018-07-17T15:41:31.160Z,93918.26
2018-07-17T15:43:59.907Z,93923.09
2018-07-17T15:46:28.608Z,93918.50
2018-07-17T15:48:57.348Z,93927.23
2018-07-17T15:51:26.097Z,93923.03
2018-07-17T15:53:55.299Z,93924.17
2018-07-17T15:56:23.934Z,93926.59
2018-07-17T15:58:52.628Z,93927.91
2018-07-17T16:01:21.563Z,93945.98
2018-07-17T16:03:50.386Z,93939.41
2018-07-17T16:06:19.965Z,93934.89
2018-07-17T16:08:48.500Z,93935.19
2018-07-17T16:11:17.487Z,93933.61
2018-07-17T16:13:46.412Z,93930.94
2018-07-17T16:16:14.974Z,93939.99
2018-07-17T16:18:43.711Z,93943.73
2018-07-17T16:21:12.545Z,93975.52
2018-07-17T16:23:41.323Z,93959.09
2018-07-17T16:26:10.140Z,93966.77
2018-07-17T16:28:38.838Z,93956.98
2018-07-17T16:31:07.521Z,93968.09
2018-07-17T16:33:36.373Z,93959.64
2018-07-17T16:36:05.166Z,93976.32
2018-07-17T16:38:33.918Z,93953.25
2018-07-17T16:41:03.226Z,93955.39
2018-07-17T16:43:31.950Z,93961.47
2018-07-17T16:46:00.792Z,93962.02
2018-07-17T16:48:29.587Z,93960.15
2018-07-17T16:50:59.744Z,93953.25
2018-07-17T16:53:29.580Z,93966.49
2018-07-17T16:58:06.727Z,93958.21
2018-07-17T17:03:05.145Z,93974.60
2018-07-17T17:05:34.157Z,93981.95
2018-07-17T17:08:03.049Z,93980.36
2018-07-17T17:10:31.746Z,93977.68
2018-07-17T17:13:00.809Z,93972.37
2018-07-17T17:15:29.767Z,93974.48
2018-07-17T17:17:58.930Z,93972.86
2018-07-17T17:20:27.671Z,93990.03
2018-07-17T17:22:56.486Z,93983.94
2018-07-17T17:25:25.389Z,93985.54
2018-07-17T17:27:54.050Z,93987.39
2018-07-17T17:30:22.898Z,93986.08
2018-07-17T17:32:51.775Z,93982.67
2018-07-17T17:35:21.083Z,93993.21
2018-07-17T17:37:50.951Z,93992.94
2018-07-17T17:40:19.820Z,93991.88
2018-07-17T17:42:49.106Z,94002.72
2018-07-17T17:45:19.357Z,93996.00
2018-07-17T17:47:48.398Z,93994.37
2018-07-17T17:50:17.188Z,93991.45
2018-07-17T17:52:45.916Z,94005.69
2018-07-17T17:55:14.612Z,94000.64
2018-07-17T17:57:43.356Z,93995.54
2018-07-17T18:00:12.422Z,94006.38
2018-07-17T18:02:41.206Z,94009.28
2018-07-17T18:05:09.964Z,94009.83
2018-07-17T18:07:38.878Z,94006.34
2018-07-17T18:10:07.567Z,94012.95
2018-07-17T18:12:36.358Z,94009.78
2018-07-17T18:15:05.150Z,94010.58
2018-07-17T18:17:34.253Z,94016.41
2018-07-17T18:20:03.197Z,94020.82
2018-07-17T18:22:32.903Z,94016.05
2018-07-17T18:25:02.069Z,94025.78
2018-07-17T18:27:30.842Z,94030.25
2018-07-17T18:30:00.104Z,94036.55
2018-07-17T18:32:28.905Z,94030.97
2018-07-17T18:34:57.618Z,94034.45
2018-07-17T18:37:26.336Z,94046.75
2018-07-17T18:39:55.137Z,94041.45
2018-07-17T18:42:23.812Z,94043.00
2018-07-17T18:44:52.564Z,94063.55
2018-07-17T18:47:21.295Z,94052.42
2018-07-17T18:50:12.000Z,94049.56
2018-07-17T18:52:19.918Z,94056.97
2018-07-17T18:54:48.586Z,94059.23
2018-07-17T18:57:17.344Z,94065.55
2018-07-17T18:59:46.135Z,94063.39
2018-07-17T19:02:14.746Z,94074.62
2018-07-17T19:04:43.460Z,94066.38
2018-07-17T19:07:12.203Z,94081.94
2018-07-17T19:09:41.110Z,94082.16
2018-07-17T19:12:09.933Z,94080.61
2018-07-17T19:14:38.816Z,94085.84
2018-07-17T19:17:07.558Z,94086.40
2018-07-17T19:19:36.718Z,94087.75
2018-07-17T19:22:05.471Z,94078.42
2018-07-17T19:24:34.500Z,94088.70
2018-07-17T19:27:03.980Z,94082.02
2018-07-17T19:29:32.775Z,94075.16
2018-07-17T19:32:02.777Z,94075.41
2018-07-17T19:34:31.852Z,94066.41
2018-07-17T19:37:00.524Z,94063.70
2018-07-17T19:39:29.257Z,94069.98
2018-07-17T19:41:57.967Z,94069.17
2018-07-17T19:44:26.701Z,94076.55
2018-07-17T19:46:55.526Z,94076.58
2018-07-17T19:49:24.333Z,94072.09
2018-07-17T19:51:53.168Z,94078.94
2018-07-17T19:54:22.064Z,94072.34
2018-07-17T19:56:50.818Z,94085.06
2018-07-17T19:59:19.538Z,94067.97
2018-07-17T20:01:54.167Z,94073.59
2018-07-17T20:04:36.394Z,94068.75
2018-07-17T20:07:05.637Z,94074.62
2018-07-17T20:09:34.495Z,94078.59
2018-07-17T20:12:04.553Z,94086.22
2018-07-17T20:14:33.261Z,94068.67
2018-07-17T20:17:01.981Z,94076.02
2018-07-17T20:19:30.697Z,94093.92
2018-07-17T20:21:59.437Z,94074.63
2018-07-17T20:24:28.347Z,94081.77
2018-07-17T20:26:57.103Z,94080.98
2018-07-17T20:29:26.343Z,94081.45
2018-07-17T20:31:55.707Z,94079.59
2018-07-17T20:34:24.545Z,94084.02
2018-07-17T20:36:53.239Z,94079.44
2018-07-17T20:39:21.965Z,94090.02
2018-07-17T20:41:51.610Z,94084.42
2018-07-17T20:44:20.365Z,94084.54
2018-07-17T20:46:51.005Z,94087.02
2018-07-17T20:49:19.758Z,94086.24
2018-07-17T20:51:48.532Z,94087.56
2018-07-17T20:54:17.187Z,94092.55
2018-07-17T20:56:46.664Z,94082.50
2018-07-17T20:59:15.744Z,94083.82
2018-07-17T21:01:44.607Z,94092.20
2018-07-17T21:04:13.373Z,94090.10
2018-07-17T21:06:42.237Z,94082.72
2018-07-17T21:09:12.115Z,94087.64
2018-07-17T21:11:41.078Z,94095.02
2018-07-17T21:14:10.740Z,94095.02
2018-07-17T21:16:39.587Z,94109.23
2018-07-17T21:19:08.389Z,94089.17
2018-07-17T21:21:37.200Z,94098.55
2018-07-17T21:24:06.017Z,94084.01
2018-07-17T21:26:34.863Z,94078.70
2018-07-17T21:29:03.681Z,94082.12
2018-07-17T21:31:32.444Z,94089.17
2018-07-17T21:34:01.227Z,94082.62
2018-07-17T21:36:30.105Z,94090.06
2018-07-17T21:38:58.849Z,94094.48
2018-07-17T21:41:27.575Z,94090.77
2018-07-17T21:43:56.325Z,94089.45
2018-07-17T21:46:25.021Z,94103.88
2018-07-17T21:48:53.707Z,94102.56
2018-07-17T21:51:22.458Z,94103.63
2018-07-17T21:53:51.155Z,94103.88
2018-07-17T21:56:19.898Z,94104.33
2018-07-17T21:58:48.642Z,94112.03
2018-07-17T22:01:17.497Z,94125.92
2018-07-17T22:03:46.210Z,94116.37
2018-07-17T22:06:14.916Z,94109.56
2018-07-17T22:08:44.617Z,94119.78
2018-07-17T22:11:13.356Z,94118.30
2018-07-17T22:13:42.021Z,94121.55
2018-07-17T22:16:10.736Z,94126.16
2018-07-17T22:18:39.479Z,94129.28
2018-07-17T22:21:08.288Z,94126.08
2018-07-17T22:23:37.008Z,94123.16
2018-07-17T22:26:05.788Z,94121.75
2018-07-17T22:28:34.563Z,94130.88
2018-07-17T22:31:03.267Z,94114.33
2018-07-17T22:33:31.990Z,94124.04
2018-07-17T22:36:00.758Z,94120.86
2018-07-17T22:38:29.531Z,94121.84
2018-07-17T22:40:58.361Z,94117.84
2018-07-17T22:43:27.125Z,94129.91
2018-07-17T22:45:55.864Z,94126.68
2018-07-17T22:48:24.593Z,94125.36
2018-07-17T22:50:53.808Z,94119.52
2018-07-17T22:53:22.511Z,94122.01
2018-07-17T22:55:51.301Z,94126.83
2018-07-17T22:58:20.034Z,94124.30
2018-07-17T23:00:48.876Z,94138.09
2018-07-17T23:03:17.590Z,94138.59
2018-07-17T23:05:46.316Z,94139.91
2018-07-17T23:08:15.030Z,94129.07
2018-07-17T23:10:43.734Z,94136.67
2018-07-17T23:13:12.498Z,94142.13
2018-07-17T23:15:41.186Z,94135.26
2018-07-17T23:18:09.897Z,94137.08
2018-07-17T23:20:38.700Z,94135.26
2018-07-17T23:23:07.424Z,94152.37
2018-07-17T23:25:36.112Z,94130.64
2018-07-17T23:28:04.849Z,94128.82
2018-07-17T23:30:33.608Z,94134.24
2018-07-17T23:33:02.266Z,94135.80
2018-07-17T23:35:31.000Z,94123.38
2018-07-17T23:38:00.182Z,94126.78
2018-07-17T23:40:28.936Z,94124.44
2018-07-17T23:42:57.709Z,94126.78
2018-07-17T23:45:26.437Z,94132.48
2018-07-17T23:47:55.128Z,94127.22
2018-07-17T23:50:23.880Z,94135.41
2018-07-17T23:52:52.579Z,94137.54
2018-07-17T23:55:21.284Z,94132.48
2018-07-17T23:57:49.988Z,94129.75
